createdAt,value
2023-03-17T00:01:10.271Z,100390.06
2023-03-17T00:03:40.307Z,100398.72
2023-03-17T00:06:14.794Z,100403.66
2023-03-17T00:08:41.552Z,100409.84
2023-03-17T00:11:16.168Z,100400.41
2023-03-17T00:13:44.617Z,100395.31
2023-03-17T00:16:19.998Z,100383.31
2023-03-17T00:18:48.265Z,100393.56
2023-03-17T00:21:17.830Z,100393.50
2023-03-17T00:23:46.971Z,100387.53
2023-03-17T00:26:14.240Z,100390.78
2023-03-17T00:28:42.961Z,100384.47
2023-03-17T00:31:14.480Z,100377.44
2023-03-17T00:33:41.726Z,100366.09
2023-03-17T00:36:13.676Z,100363.63
2023-03-17T00:38:40.340Z,100355.97
2023-03-17T00:41:09.275Z,100357.81
2023-03-17T00:43:36.076Z,100354.56
2023-03-17T00:46:09.549Z,100355.41
2023-03-17T00:48:36.990Z,100362.59
2023-03-17T00:51:03.626Z,100361.50
2023-03-17T00:53:30.388Z,100360.44
2023-03-17T00:55:59.162Z,100358.72
2023-03-17T00:58:29.021Z,100361.78
2023-03-17T01:00:56.130Z,100363.94
2023-03-17T01:03:23.921Z,100359.69
2023-03-17T01:05:52.742Z,100364.88
2023-03-17T01:08:19.981Z,100355.41
2023-03-17T01:10:47.846Z,100362.38
2023-03-17T01:13:14.549Z,100361.97
2023-03-17T01:15:47.120Z,100369.00
2023-03-17T01:18:16.779Z,100376.25
2023-03-17T01:20:43.954Z,100380.59
2023-03-17T01:23:12.204Z,100379.25
2023-03-17T01:25:41.408Z,100380.88
2023-03-17T01:28:16.964Z,100381.09
2023-03-17T01:30:45.084Z,100371.59
2023-03-17T01:33:12.976Z,100371.50
2023-03-17T01:35:41.504Z,100374.09
2023-03-17T01:38:08.714Z,100367.19
2023-03-17T01:40:42.509Z,100356.63
2023-03-17T01:43:09.070Z,100349.72
2023-03-17T01:46:13.506Z,100346.06
2023-03-17T01:49:09.444Z,100345.59
2023-03-17T01:51:38.683Z,100343.81
2023-03-17T01:54:10.691Z,100336.84
2023-03-17T01:56:41.976Z,100354.56
2023-03-17T01:59:13.671Z,100346.75
2023-03-17T02:01:44.898Z,100340.81
2023-03-17T02:04:12.016Z,100350.25
2023-03-17T02:06:55.144Z,100339.28
2023-03-17T02:09:24.095Z,100345.91
2023-03-17T02:11:50.899Z,100339.66
2023-03-17T02:14:17.838Z,100338.84
2023-03-17T02:16:48.503Z,100336.19
2023-03-17T02:19:16.756Z,100344.94
2023-03-17T02:21:45.221Z,100350.63
2023-03-17T02:24:21.946Z,100346.59
2023-03-17T02:26:50.547Z,100344.81
2023-03-17T02:29:18.774Z,100352.06
2023-03-17T02:31:45.494Z,100357.84
2023-03-17T02:34:12.175Z,100348.78
2023-03-17T02:36:38.910Z,100344.56
2023-03-17T02:39:05.626Z,100339.19
2023-03-17T02:41:32.489Z,100340.13
2023-03-17T02:43:59.315Z,100331.22
2023-03-17T02:46:26.275Z,100326.16
2023-03-17T02:48:54.221Z,100316.13
2023-03-17T02:51:20.983Z,100303.66
2023-03-17T02:53:47.672Z,100294.22
2023-03-17T02:56:14.253Z,100296.44
2023-03-17T02:58:40.865Z,100292.41
2023-03-17T03:01:09.104Z,100285.06
2023-03-17T03:03:36.293Z,100278.44
2023-03-17T03:06:03.272Z,100289.28
2023-03-17T03:08:30.337Z,100288.44
2023-03-17T03:10:57.093Z,100280.13
2023-03-17T03:13:23.684Z,100281.56
2023-03-17T03:15:50.335Z,100276.19
2023-03-17T03:18:17.000Z,100268.94
2023-03-17T03:20:45.010Z,100265.19
2023-03-17T03:23:12.008Z,100269.44
2023-03-17T03:25:38.833Z,100262.91
2023-03-17T03:28:08.054Z,100268.22
2023-03-17T03:30:36.521Z,100269.00
2023-03-17T03:33:04.039Z,100273.41
2023-03-17T03:35:30.749Z,100280.44
2023-03-17T03:37:57.409Z,100270.66
2023-03-17T03:40:25.174Z,100270.94
2023-03-17T03:42:51.755Z,100266.03
2023-03-17T03:45:19.079Z,100275.41
2023-03-17T03:47:45.629Z,100277.56
2023-03-17T03:50:14.837Z,100274.97
2023-03-17T03:52:41.563Z,100273.88
2023-03-17T03:55:09.151Z,100268.88
2023-03-17T03:57:36.798Z,100272.28
2023-03-17T04:00:05.240Z,100278.09
2023-03-17T04:02:38.521Z,100292.63
2023-03-17T04:05:07.163Z,100303.78
2023-03-17T04:07:33.752Z,100299.28
2023-03-17T04:10:00.515Z,100295.53
2023-03-17T04:12:27.099Z,100288.63
2023-03-17T04:14:53.777Z,100287.44
2023-03-17T04:17:20.307Z,100280.34
2023-03-17T04:19:46.973Z,100270.06
2023-03-17T04:22:13.690Z,100273.34
2023-03-17T04:24:40.869Z,100268.78
2023-03-17T04:27:08.016Z,100273.47
2023-03-17T04:29:34.680Z,100268.00
2023-03-17T04:32:03.581Z,100277.72
2023-03-17T04:34:30.228Z,100266.56
2023-03-17T04:36:56.893Z,100268.13
2023-03-17T04:39:23.671Z,100273.78
2023-03-17T04:41:50.566Z,100263.09
2023-03-17T04:44:17.329Z,100258.00
2023-03-17T04:46:43.905Z,100255.97
2023-03-17T04:49:10.492Z,100267.03
2023-03-17T04:51:39.831Z,100278.13
2023-03-17T04:54:06.932Z,100274.69
2023-03-17T04:56:33.586Z,100274.34
2023-03-17T04:59:00.179Z,100267.91
2023-03-17T05:01:27.070Z,100255.97
2023-03-17T05:03:53.849Z,100250.16
2023-03-17T05:06:20.444Z,100261.06
2023-03-17T05:08:47.006Z,100260.28
2023-03-17T05:11:14.340Z,100248.50
2023-03-17T05:13:41.001Z,100255.75
2023-03-17T05:16:08.982Z,100252.97
2023-03-17T05:18:37.114Z,100250.34
2023-03-17T05:21:06.197Z,100257.84
2023-03-17T05:23:32.786Z,100262.00
2023-03-17T05:25:59.376Z,100256.19
2023-03-17T05:28:26.664Z,100260.47
2023-03-17T05:30:53.637Z,100259.69
2023-03-17T05:33:21.626Z,100254.81
2023-03-17T05:35:48.384Z,100252.44
2023-03-17T05:38:15.957Z,100252.19
2023-03-17T05:40:43.385Z,100244.84
2023-03-17T05:43:10.024Z,100238.88
2023-03-17T05:45:37.141Z,100243.41
2023-03-17T05:48:04.750Z,100241.22
2023-03-17T05:50:31.748Z,100238.09
2023-03-17T05:52:58.750Z,100231.00
2023-03-17T05:55:25.741Z,100217.38
2023-03-17T05:57:52.386Z,100228.97
2023-03-17T06:00:20.937Z,100239.75
2023-03-17T06:02:47.725Z,100238.47
2023-03-17T06:05:14.275Z,100235.25
2023-03-17T06:07:52.902Z,100226.63
2023-03-17T06:10:19.988Z,100236.25
2023-03-17T06:12:47.303Z,100240.63
2023-03-17T06:15:14.005Z,100231.06
2023-03-17T06:17:43.527Z,100230.88
2023-03-17T06:20:11.826Z,100223.66
2023-03-17T06:22:44.040Z,100223.72
2023-03-17T06:25:15.598Z,100231.47
2023-03-17T06:27:42.622Z,100230.91
2023-03-17T06:30:12.374Z,100231.47
2023-03-17T06:32:39.030Z,100233.28
2023-03-17T06:35:07.280Z,100232.34
2023-03-17T06:37:35.062Z,100233.16
2023-03-17T06:40:01.800Z,100233.13
2023-03-17T06:42:28.470Z,100235.06
2023-03-17T06:44:55.597Z,100239.59
2023-03-17T06:47:24.790Z,100243.84
2023-03-17T06:49:53.555Z,100244.09
2023-03-17T06:52:20.403Z,100239.47
2023-03-17T06:54:47.032Z,100233.59
2023-03-17T06:57:13.611Z,100244.22
2023-03-17T06:59:40.392Z,100247.72
2023-03-17T07:02:07.404Z,100253.19
2023-03-17T07:04:37.399Z,100247.44
2023-03-17T07:07:05.697Z,100245.13
2023-03-17T07:09:34.418Z,100248.59
2023-03-17T07:12:05.068Z,100244.28
2023-03-17T07:14:33.858Z,100234.91
2023-03-17T07:17:00.454Z,100244.06
2023-03-17T07:19:27.285Z,100245.19
2023-03-17T07:21:57.681Z,100252.84
2023-03-17T07:24:25.200Z,100246.88
2023-03-17T07:26:52.233Z,100249.03
2023-03-17T07:29:18.823Z,100237.78
2023-03-17T07:31:45.790Z,100235.31
2023-03-17T07:34:12.789Z,100232.03
2023-03-17T07:36:39.588Z,100232.13
2023-03-17T07:39:06.537Z,100230.53
2023-03-17T07:41:33.565Z,100235.03
2023-03-17T07:44:00.639Z,100234.19
2023-03-17T07:46:27.746Z,100234.38
2023-03-17T07:48:54.546Z,100234.69
2023-03-17T07:51:23.327Z,100233.19
2023-03-17T07:53:53.066Z,100230.78
2023-03-17T07:56:19.596Z,100234.47
2023-03-17T07:58:46.147Z,100237.22
2023-03-17T08:01:12.748Z,100232.22
2023-03-17T08:03:41.261Z,100243.44
2023-03-17T08:06:08.584Z,100228.78
2023-03-17T08:08:35.468Z,100225.59
2023-03-17T08:11:04.673Z,100228.47
2023-03-17T08:13:32.635Z,100223.44
2023-03-17T08:16:00.024Z,100222.78
2023-03-17T08:18:27.038Z,100228.16
2023-03-17T08:20:53.695Z,100226.47
2023-03-17T08:23:20.591Z,100223.88
2023-03-17T08:25:47.987Z,100227.28
2023-03-17T08:28:15.432Z,100225.97
2023-03-17T08:30:43.240Z,100219.00
2023-03-17T08:33:10.013Z,100203.63
2023-03-17T08:35:37.385Z,100206.25
2023-03-17T08:38:04.550Z,100206.28
2023-03-17T08:40:31.714Z,100212.44
2023-03-17T08:42:58.518Z,100198.66
2023-03-17T08:45:25.144Z,100202.25
2023-03-17T08:47:52.462Z,100197.94
2023-03-17T08:50:22.310Z,100191.13
2023-03-17T08:52:51.468Z,100180.72
2023-03-17T08:55:19.372Z,100193.78
2023-03-17T08:57:46.861Z,100191.19
2023-03-17T09:00:20.148Z,100195.53
2023-03-17T09:02:48.653Z,100193.88
2023-03-17T09:05:17.050Z,100205.16
2023-03-17T09:07:43.976Z,100211.28
2023-03-17T09:10:12.691Z,100214.78
2023-03-17T09:12:41.249Z,100211.28
2023-03-17T09:15:09.271Z,100226.09
2023-03-17T09:17:35.995Z,100233.94
2023-03-17T09:20:02.880Z,100234.78
2023-03-17T09:22:29.555Z,100227.84
2023-03-17T09:24:56.066Z,100220.03
2023-03-17T09:27:22.691Z,100226.97
2023-03-17T09:29:49.652Z,100210.44
2023-03-17T09:32:16.445Z,100220.00
2023-03-17T09:34:43.038Z,100215.63
2023-03-17T09:37:09.905Z,100213.00
2023-03-17T09:39:36.562Z,100207.75
2023-03-17T09:42:08.954Z,100203.41
2023-03-17T09:45:06.861Z,100207.81
2023-03-17T09:47:36.586Z,100203.38
2023-03-17T09:50:12.267Z,100201.50
2023-03-17T09:52:38.961Z,100211.88
2023-03-17T09:55:09.342Z,100201.28
2023-03-17T09:57:38.472Z,100202.03
2023-03-17T10:00:18.376Z,100190.56
2023-03-17T10:02:45.619Z,100198.28
2023-03-17T10:05:26.084Z,100194.59
2023-03-17T10:08:31.341Z,100197.28
2023-03-17T10:11:36.937Z,100196.31
2023-03-17T10:14:12.638Z,100192.59
2023-03-17T10:16:54.652Z,100197.63
2023-03-17T10:19:46.211Z,100192.47
2023-03-17T10:22:30.323Z,100188.91
2023-03-17T10:25:07.472Z,100194.06
2023-03-17T10:27:37.334Z,100186.16
2023-03-17T10:30:13.631Z,100182.50
2023-03-17T10:32:43.908Z,100182.06
2023-03-17T10:35:15.508Z,100180.03
2023-03-17T10:37:43.984Z,100179.06
2023-03-17T10:40:23.382Z,100187.09
2023-03-17T10:43:03.785Z,100176.03
2023-03-17T10:45:33.256Z,100182.72
2023-03-17T10:48:01.570Z,100179.09
2023-03-17T10:50:35.049Z,100176.06
2023-03-17T10:53:08.068Z,100165.94
2023-03-17T10:55:42.620Z,100157.78
2023-03-17T10:58:18.606Z,100170.38
2023-03-17T11:00:56.690Z,100169.00
2023-03-17T11:03:27.451Z,100164.13
2023-03-17T11:06:02.517Z,100159.50
2023-03-17T11:08:46.769Z,100157.84
2023-03-17T11:11:34.723Z,100161.69
2023-03-17T11:14:19.013Z,100155.59
2023-03-17T11:16:58.069Z,100156.69
2023-03-17T11:19:37.428Z,100153.56
2023-03-17T11:22:25.776Z,100159.31
2023-03-17T11:25:04.624Z,100156.22
2023-03-17T11:27:35.162Z,100148.91
2023-03-17T11:30:23.489Z,100148.94
2023-03-17T11:33:05.607Z,100152.78
2023-03-17T11:35:50.153Z,100154.91
2023-03-17T11:38:21.760Z,100155.38
2023-03-17T11:41:06.863Z,100158.53
2023-03-17T11:43:54.556Z,100148.44
2023-03-17T11:46:34.212Z,100135.34
2023-03-17T11:49:10.879Z,100137.16
2023-03-17T11:52:03.223Z,100137.91
2023-03-17T11:54:36.148Z,100131.16
2023-03-17T11:57:12.924Z,100137.81
2023-03-17T11:59:44.468Z,100131.00
2023-03-17T12:02:28.591Z,100130.88
2023-03-17T12:05:17.426Z,100132.31
2023-03-17T12:07:51.270Z,100135.41
2023-03-17T12:10:25.579Z,100132.31
2023-03-17T12:13:01.653Z,100131.06
2023-03-17T12:15:30.745Z,100125.91
2023-03-17T12:18:18.243Z,100135.22
2023-03-17T12:20:55.478Z,100130.28
2023-03-17T12:23:34.019Z,100127.53
2023-03-17T12:26:07.177Z,100122.53
2023-03-17T12:28:49.315Z,100124.63
2023-03-17T12:31:22.792Z,100122.13
2023-03-17T12:34:07.878Z,100114.84
2023-03-17T12:36:36.740Z,100115.84
2023-03-17T12:39:28.079Z,100121.28
2023-03-17T12:42:13.546Z,100115.84
2023-03-17T12:45:18.684Z,100116.28
2023-03-17T12:48:00.556Z,100115.78
2023-03-17T12:50:55.298Z,100107.53
2023-03-17T12:53:31.558Z,100105.56
2023-03-17T12:56:09.255Z,100106.16
2023-03-17T12:58:39.551Z,100112.47
2023-03-17T13:01:33.758Z,100097.88
2023-03-17T13:04:07.114Z,100087.78
2023-03-17T13:06:40.617Z,100088.38
2023-03-17T13:09:27.864Z,100086.50
2023-03-17T13:11:55.721Z,100082.06
2023-03-17T13:14:36.055Z,100079.59
2023-03-17T13:17:11.944Z,100093.13
2023-03-17T13:19:56.649Z,100091.00
2023-03-17T13:22:33.112Z,100083.31
2023-03-17T13:25:33.467Z,100080.22
2023-03-17T13:28:47.625Z,100078.06
2023-03-17T13:31:20.278Z,100071.44
2023-03-17T13:33:53.218Z,100073.94
2023-03-17T13:36:36.742Z,100080.31
2023-03-17T13:39:31.152Z,100059.84
2023-03-17T13:42:29.970Z,100054.50
2023-03-17T13:45:23.951Z,100055.91
2023-03-17T13:47:52.622Z,100057.53
2023-03-17T13:50:31.966Z,100053.63
2023-03-17T13:53:03.479Z,100052.09
2023-03-17T13:55:40.833Z,100051.31
2023-03-17T13:58:10.891Z,100051.78
2023-03-17T14:00:41.379Z,100048.63
2023-03-17T14:03:47.377Z,100048.53
2023-03-17T14:06:15.035Z,100046.63
2023-03-17T14:08:46.435Z,100040.16
2023-03-17T14:11:23.741Z,100028.38
2023-03-17T14:14:07.857Z,100030.44
2023-03-17T14:16:47.108Z,100032.06
2023-03-17T14:19:20.095Z,100029.44
2023-03-17T14:21:47.241Z,100026.53
2023-03-17T14:24:23.439Z,100029.06
2023-03-17T14:26:51.799Z,100030.84
2023-03-17T14:29:32.436Z,100021.47
2023-03-17T14:32:04.126Z,100021.38
2023-03-17T14:34:30.807Z,100024.44
2023-03-17T14:37:04.393Z,100018.53
2023-03-17T14:39:31.162Z,100026.53
2023-03-17T14:42:04.716Z,100022.63
2023-03-17T14:44:42.983Z,100020.44
2023-03-17T14:47:23.217Z,100021.28
2023-03-17T14:49:53.215Z,100027.44
2023-03-17T14:52:23.806Z,100018.41
2023-03-17T14:54:53.539Z,100022.13
2023-03-17T14:57:31.330Z,100016.50
2023-03-17T15:00:34.051Z,100012.38
2023-03-17T15:03:05.806Z,100018.03
2023-03-17T15:05:40.246Z,100016.78
2023-03-17T15:08:34.021Z,100013.91
2023-03-17T15:11:04.908Z,100020.63
2023-03-17T15:13:35.774Z,100017.19
2023-03-17T15:16:15.046Z,100013.66
2023-03-17T15:18:42.107Z,100021.75
2023-03-17T15:21:32.367Z,100009.66
2023-03-17T15:24:04.931Z,100006.41
2023-03-17T15:26:31.821Z,100009.28
2023-03-17T15:29:00.402Z,100005.25
2023-03-17T15:31:30.029Z,100013.44
2023-03-17T15:33:57.828Z,100005.88
2023-03-17T15:36:32.406Z,100012.69
2023-03-17T15:39:01.062Z,100005.31
2023-03-17T15:41:28.000Z,100001.66
2023-03-17T15:43:54.624Z,100002.44
2023-03-17T15:46:31.986Z,99997.88
2023-03-17T15:48:58.799Z,99991.47
2023-03-17T15:51:25.508Z,99994.34
2023-03-17T15:53:52.201Z,99995.56
2023-03-17T15:56:21.532Z,99990.59
2023-03-17T15:58:51.459Z,100003.03
2023-03-17T16:01:18.743Z,100004.50
2023-03-17T16:03:47.097Z,100002.28
2023-03-17T16:06:22.371Z,100011.81
2023-03-17T16:08:50.553Z,100004.97
2023-03-17T16:11:19.411Z,100010.28
2023-03-17T16:13:47.562Z,100015.59
2023-03-17T16:16:22.542Z,100018.25
2023-03-17T16:18:51.550Z,100010.56
2023-03-17T16:21:19.204Z,100016.25
2023-03-17T16:23:46.817Z,100030.06
2023-03-17T16:26:16.166Z,100029.31
2023-03-17T16:28:46.087Z,100036.63
2023-03-17T16:31:18.061Z,100039.34
2023-03-17T16:33:45.144Z,100034.16
2023-03-17T16:36:17.047Z,100023.16
2023-03-17T16:38:44.068Z,100036.16
2023-03-17T16:41:20.515Z,100044.91
2023-03-17T16:43:51.253Z,100032.03
2023-03-17T16:46:19.785Z,100033.03
2023-03-17T16:48:48.266Z,100034.00
2023-03-17T16:51:15.215Z,100038.31
2023-03-17T16:53:41.786Z,100045.59
2023-03-17T16:56:20.512Z,100051.69
2023-03-17T16:58:47.992Z,100056.97
2023-03-17T17:01:24.947Z,100065.03
2023-03-17T17:03:52.310Z,100060.47
2023-03-17T17:06:19.882Z,100052.75
2023-03-17T17:08:47.387Z,100035.69
2023-03-17T17:11:15.145Z,100046.44
2023-03-17T17:13:43.501Z,100050.75
2023-03-17T17:16:19.297Z,100053.41
2023-03-17T17:18:47.255Z,100074.41
2023-03-17T17:21:14.253Z,100066.75
2023-03-17T17:23:40.882Z,100074.44
2023-03-17T17:26:07.803Z,100072.81
2023-03-17T17:28:34.549Z,100064.00
2023-03-17T17:31:01.565Z,100060.66
2023-03-17T17:33:28.204Z,100073.78
2023-03-17T17:35:54.911Z,100071.09
2023-03-17T17:38:26.290Z,100069.38
2023-03-17T17:40:54.268Z,100072.81
2023-03-17T17:43:21.184Z,100068.13
2023-03-17T17:45:48.620Z,100064.66
2023-03-17T17:48:17.138Z,100067.25
2023-03-17T17:50:44.191Z,100055.78
2023-03-17T17:53:12.335Z,100060.22
2023-03-17T17:55:40.463Z,100063.72
2023-03-17T17:58:07.270Z,100064.66
2023-03-17T18:00:33.993Z,100062.06
2023-03-17T18:03:00.638Z,100060.38
2023-03-17T18:05:28.109Z,100066.53
2023-03-17T18:07:55.203Z,100063.00
2023-03-17T18:10:25.764Z,100072.00
2023-03-17T18:12:53.444Z,100068.47
2023-03-17T18:15:21.896Z,100064.22
2023-03-17T18:17:49.194Z,100056.97
2023-03-17T18:20:18.392Z,100057.03
2023-03-17T18:22:45.052Z,100076.16
2023-03-17T18:25:23.099Z,100084.09
2023-03-17T18:27:53.100Z,100081.44
2023-03-17T18:30:26.615Z,100084.06
2023-03-17T18:32:57.079Z,100083.41
2023-03-17T18:35:27.051Z,100081.63
2023-03-17T18:38:11.410Z,100072.94
2023-03-17T18:41:11.365Z,100066.94
2023-03-17T18:43:51.296Z,100069.72
2023-03-17T18:46:26.937Z,100058.16
2023-03-17T18:48:53.465Z,100060.06
2023-03-17T18:51:20.483Z,100057.28
2023-03-17T18:53:47.242Z,100038.97
2023-03-17T18:56:14.681Z,100042.44
2023-03-17T18:58:41.276Z,100042.34
2023-03-17T19:01:07.943Z,100048.50
2023-03-17T19:03:35.221Z,100070.59
2023-03-17T19:06:14.652Z,100110.97
2023-03-17T19:08:41.920Z,100109.16
2023-03-17T19:11:10.926Z,100130.19
2023-03-17T19:13:38.444Z,100118.84
2023-03-17T19:16:07.515Z,100117.81
2023-03-17T19:18:35.553Z,100110.97
2023-03-17T19:21:04.513Z,100092.69
2023-03-17T19:23:32.224Z,100102.28
2023-03-17T19:25:59.570Z,100089.09
2023-03-17T19:28:26.226Z,100090.09
2023-03-17T19:30:52.811Z,100090.06
2023-03-17T19:33:19.361Z,100095.31
2023-03-17T19:35:45.993Z,100082.25
2023-03-17T19:38:12.626Z,100093.69
2023-03-17T19:40:39.276Z,100076.28
2023-03-17T19:43:06.708Z,100073.13
2023-03-17T19:45:33.520Z,100111.56
2023-03-17T19:48:00.209Z,100111.44
2023-03-17T19:50:26.972Z,100110.53
2023-03-17T19:52:54.154Z,100105.34
2023-03-17T19:55:21.535Z,100106.22
2023-03-17T19:57:48.987Z,100101.06
2023-03-17T20:00:20.846Z,100099.38
2023-03-17T20:02:47.588Z,100096.84
2023-03-17T20:05:15.132Z,100098.69
2023-03-17T20:07:42.585Z,100117.06
2023-03-17T20:10:10.711Z,100108.25
2023-03-17T20:12:38.455Z,100106.47
2023-03-17T20:15:06.927Z,100110.81
2023-03-17T20:17:34.218Z,100113.47
2023-03-17T20:20:01.333Z,100102.09
2023-03-17T20:22:27.943Z,100107.31
2023-03-17T20:24:54.478Z,100104.78
2023-03-17T20:27:21.158Z,100104.84
2023-03-17T20:29:48.514Z,100109.19
2023-03-17T20:32:15.101Z,100111.84
2023-03-17T20:34:43.332Z,100116.19
2023-03-17T20:37:11.731Z,100124.03
2023-03-17T20:39:38.266Z,100113.59
2023-03-17T20:42:09.971Z,100113.63
2023-03-17T20:44:37.606Z,100122.34
2023-03-17T20:47:04.363Z,100124.09
2023-03-17T20:49:31.672Z,100124.06
2023-03-17T20:51:58.479Z,100120.69
2023-03-17T20:54:25.199Z,100124.09
2023-03-17T20:56:56.524Z,100133.59
2023-03-17T20:59:24.681Z,100137.19
2023-03-17T21:01:52.042Z,100137.16
2023-03-17T21:04:21.134Z,100139.75
2023-03-17T21:06:48.486Z,100133.66
2023-03-17T21:09:15.016Z,100133.66
2023-03-17T21:11:41.621Z,100131.13
2023-03-17T21:14:08.982Z,100132.81
2023-03-17T21:16:36.244Z,100138.97
2023-03-17T21:19:02.933Z,100132.88
2023-03-17T21:21:29.651Z,100136.34
2023-03-17T21:23:56.288Z,100141.56
2023-03-17T21:26:22.897Z,100134.59
2023-03-17T21:28:50.423Z,100140.69
2023-03-17T21:31:17.202Z,100142.44
2023-03-17T21:33:44.718Z,100143.38
2023-03-17T21:36:11.587Z,100141.56
2023-03-17T21:38:38.874Z,100145.94
2023-03-17T21:41:22.248Z,100152.88
2023-03-17T21:43:50.435Z,100144.16
2023-03-17T21:46:17.193Z,100145.91
2023-03-17T21:48:44.199Z,100145.03
2023-03-17T21:51:11.298Z,100141.56
2023-03-17T21:53:38.008Z,100139.84
2023-03-17T21:56:04.934Z,100143.31
2023-03-17T21:58:31.546Z,100150.31
2023-03-17T22:01:00.249Z,100153.81
2023-03-17T22:03:26.912Z,100146.81
2023-03-17T22:05:53.491Z,100148.59
2023-03-17T22:08:20.537Z,100145.09
2023-03-17T22:10:47.299Z,100138.09
2023-03-17T22:13:13.831Z,100128.50
2023-03-17T22:15:40.911Z,100132.88
2023-03-17T22:18:07.506Z,100137.22
2023-03-17T22:20:34.358Z,100146.84
2023-03-17T22:23:01.604Z,100147.66
2023-03-17T22:25:28.181Z,100152.03
2023-03-17T22:27:54.879Z,100153.81
2023-03-17T22:30:21.903Z,100143.38
2023-03-17T22:32:48.893Z,100145.09
2023-03-17T22:35:15.944Z,100144.28
2023-03-17T22:37:43.298Z,100153.84
2023-03-17T22:40:13.848Z,100149.47
2023-03-17T22:42:40.559Z,100154.78
2023-03-17T22:45:08.474Z,100153.00
2023-03-17T22:47:35.053Z,100157.38
2023-03-17T22:50:01.643Z,100157.34
2023-03-17T22:52:28.241Z,100167.78
2023-03-17T22:54:54.823Z,100172.16
2023-03-17T22:57:21.453Z,100167.81
2023-03-17T22:59:48.023Z,100175.66
2023-03-17T23:02:18.388Z,100169.56
2023-03-17T23:04:45.452Z,100166.13
2023-03-17T23:07:12.030Z,100169.59
2023-03-17T23:09:40.431Z,100173.09
2023-03-17T23:12:07.970Z,100173.06
2023-03-17T23:14:38.085Z,100165.25
2023-03-17T23:17:05.963Z,100164.41
2023-03-17T23:19:32.745Z,100174.81
2023-03-17T23:21:59.357Z,100179.16
2023-03-17T23:24:25.904Z,100165.28
2023-03-17T23:26:52.483Z,100177.44
2023-03-17T23:29:19.051Z,100182.63
2023-03-17T23:31:46.624Z,100179.16
2023-03-17T23:34:13.231Z,100185.28
2023-03-17T23:36:40.197Z,100185.25
2023-03-17T23:39:08.208Z,100190.47
2023-03-17T23:41:34.759Z,100186.13
2023-03-17T23:44:01.356Z,100192.22
2023-03-17T23:46:28.941Z,100195.69
2023-03-17T23:48:55.553Z,100200.06
2023-03-17T23:51:22.359Z,100195.69
2023-03-17T23:53:50.489Z,100192.22
2023-03-17T23:56:17.378Z,100194.81
2023-03-17T23:58:44.022Z,100200.91
